Time;durP1;ratioP1;P1;durP2;ratioP2;P2;SDS_P1;SDS_P2;PMS_P1;PMS_P2;Temp;Humidity;BMP_temperature;BMP_pressure;BME280_temperature;BME280_humidity;BME280_pressure;Samples;Min_cycle;Max_cycle;Signal;HPM_P1;HPM_P2
2023/11/03 00:01:02;;;;;;;3.50;2.10;;;;;;;13.42;75.97;97479.14;136579;1281;22394;-78
2023/11/03 00:04:06;;;;;;;5.30;1.90;;;;;;;13.46;75.85;97484.71;136621;1281;22438;-78
2023/11/03 00:07:08;;;;;;;2.90;1.80;;;;;;;13.47;75.58;97480.45;136580;1278;22388;-77
2023/11/03 00:10:09;;;;;;;7.90;2.50;;;;;;;13.49;75.31;97475.69;136577;1281;22466;-77
2023/11/03 00:13:10;;;;;;;5.20;2.40;;;;;;;13.53;74.97;97458.31;136577;1281;22447;-77
2023/11/03 00:16:10;;;;;;;;;;;;;;;13.55;75.09;97457.20;136585;1281;22423;-77
2023/11/03 00:19:11;;;;;;;4.50;2.30;;;;;;;13.55;74.90;97470.95;136567;1281;22428;-78
2023/11/03 00:22:15;;;;;;;9.00;3.00;;;;;;;13.57;74.85;97467.41;136637;1281;22470;-77
2023/11/03 00:25:16;;;;;;;4.20;2.10;;;;;;;13.57;74.86;97469.95;136681;1281;22391;-77
2023/11/03 00:28:17;;;;;;;8.80;2.30;;;;;;;13.57;74.92;97463.89;136670;1281;23343;-77
2023/11/03 00:31:18;;;;;;;4.20;2.10;;;;;;;13.55;75.03;97459.02;136671;1281;22341;-77
2023/11/03 00:34:18;;;;;;;4.10;2.00;;;;;;;13.52;75.24;97459.36;136652;1277;22371;-77
2023/11/03 00:37:19;;;;;;;6.30;2.40;;;;;;;13.49;75.32;97448.14;136563;1281;22501;-77
2023/11/03 00:40:19;;;;;;;10.70;2.30;;;;;;;13.45;75.56;97426.90;136658;1281;22463;-77
2023/11/03 00:43:20;;;;;;;;;;;;;;;13.41;75.63;97407.36;136682;1281;22403;-77
2023/11/03 00:46:23;;;;;;;4.60;2.20;;;;;;;13.39;75.88;97401.37;136671;1281;23282;-76
2023/11/03 00:49:24;;;;;;;9.80;2.30;;;;;;;13.39;75.86;97391.73;136650;1281;22281;-77
2023/11/03 00:52:25;;;;;;;6.40;2.30;;;;;;;13.41;76.20;97370.71;136653;1273;22371;-77
2023/11/03 00:55:26;;;;;;;3.90;2.00;;;;;;;13.43;76.37;97369.39;136557;1281;22278;-77
2023/11/03 00:58:26;;;;;;;5.20;1.80;;;;;;;13.44;76.42;97368.98;136678;1275;22477;-77
2023/11/03 01:01:27;;;;;;;2.60;1.90;;;;;;;13.48;76.43;97377.38;136525;1281;22396;-77
2023/11/03 01:04:27;;;;;;;4.00;2.50;;;;;;;13.51;76.41;97381.83;136548;1281;22455;-78
2023/11/03 01:07:28;;;;;;;8.50;2.60;;;;;;;13.52;76.55;97392.13;136584;1281;22440;-77
2023/11/03 01:10:28;;;;;;;4.00;1.90;;;;;;;13.52;76.67;97389.46;136633;1281;22436;-77
2023/11/03 01:13:30;;;;;;;8.20;2.30;;;;;;;13.51;76.97;97388.33;136644;1281;23184;-77
2023/11/03 01:16:33;;;;;;;3.10;1.80;;;;;;;13.50;77.19;97403.50;136584;1281;22411;-77
2023/11/03 01:19:34;;;;;;;6.40;1.80;;;;;;;13.47;77.65;97399.15;136664;1275;22393;-77
2023/11/03 01:22:35;;;;;;;3.90;1.80;;;;;;;13.45;78.11;97397.27;136654;1281;22447;-77
2023/11/03 01:25:35;;;;;;;3.50;2.20;;;;;;;13.41;78.45;97396.45;136659;1281;23044;-77
2023/11/03 01:28:36;;;;;;;6.00;1.80;;;;;;;13.36;78.73;97398.41;136678;1281;22401;-77
2023/11/03 01:31:37;;;;;;;2.70;1.90;;;;;;;13.30;79.08;97389.52;136598;1281;22463;-77
2023/11/03 01:34:37;;;;;;;;;;;;;;;13.25;79.34;97386.66;136686;1281;22505;-77
2023/11/03 01:37:37;;;;;;;3.30;2.10;;;;;;;13.20;79.55;97376.16;136638;1281;22417;-77
2023/11/03 01:40:38;;;;;;;4.80;1.90;;;;;;;13.17;79.77;97379.12;136661;1281;22522;-77
2023/11/03 01:44:05;;;;;;;5.80;1.80;;;;;;;13.14;79.96;97378.23;136679;1281;22473;-77
2023/11/03 01:47:06;;;;;;;2.50;1.70;;;;;;;13.13;80.07;97380.88;136651;1281;23432;-77
2023/11/03 01:50:09;;;;;;;3.10;1.80;;;;;;;13.12;80.13;97390.73;136637;1277;22429;-77
2023/11/03 01:53:13;;;;;;;5.20;1.90;;;;;;;13.11;80.12;97390.02;136571;1280;22464;-77
2023/11/03 01:56:14;;;;;;;5.20;1.90;;;;;;;13.08;80.40;97384.98;136579;1281;22385;-77
2023/11/03 01:59:16;;;;;;;3.80;2.30;;;;;;;13.02;80.71;97380.45;136561;1281;22382;-77
2023/11/03 02:02:18;;;;;;;4.60;2.30;;;;;;;12.94;81.12;97378.39;136563;1280;22524;-78
2023/11/03 02:05:19;;;;;;;3.60;2.30;;;;;;;12.86;81.69;97378.88;136655;1281;22399;-77
2023/11/03 02:08:19;;;;;;;3.70;2.30;;;;;;;12.78;82.05;97391.83;136562;1280;22446;-79
2023/11/03 02:11:26;;;;;;;8.70;3.10;;;;;;;12.71;82.77;97387.63;136658;1281;22250;-78
2023/11/03 02:14:29;;;;;;;3.60;2.40;;;;;;;12.65;83.17;97391.77;136674;1278;22399;-79
2023/11/03 02:17:30;;;;;;;5.00;2.40;;;;;;;12.60;83.11;97392.01;136669;1280;22451;-79
2023/11/03 02:20:30;;;;;;;;;;;;;;;12.53;83.62;97397.13;136670;1275;22448;-80
2023/11/03 02:23:33;;;;;;;6.50;3.20;;;;;;;12.44;84.16;97397.75;136686;1281;22409;-80
2023/11/03 02:26:35;;;;;;;4.00;2.40;;;;;;;12.34;84.30;97399.47;136580;1281;22453;-79
2023/11/03 02:29:36;;;;;;;6.80;2.90;;;;;;;12.23;85.12;97398.10;136661;1281;22378;-79
2023/11/03 02:32:36;;;;;;;6.70;2.90;;;;;;;12.11;85.82;97391.44;136658;1281;23116;-79
2023/11/03 02:35:37;;;;;;;5.30;3.20;;;;;;;12.01;86.94;97386.49;136669;1281;22523;-79
2023/11/03 02:38:37;;;;;;;9.40;4.40;;;;;;;11.92;87.18;97389.54;136679;1281;22449;-79
2023/11/03 02:41:38;;;;;;;9.20;3.60;;;;;;;11.85;87.34;97382.77;136692;1281;22392;-81
2023/11/03 02:44:39;;;;;;;5.00;3.70;;;;;;;11.79;87.47;97380.00;136587;1281;22432;-80
2023/11/03 02:47:40;;;;;;;;;;;;;;;11.74;87.40;97374.98;136626;1281;22458;-80
2023/11/03 02:50:40;;;;;;;6.70;2.90;;;;;;;11.67;87.90;97365.83;136661;1278;23564;-79
2023/11/03 02:53:41;;;;;;;7.90;4.50;;;;;;;11.61;88.15;97366.04;136645;1281;22465;-80
2023/11/03 02:56:42;;;;;;;6.80;4.00;;;;;;;11.57;88.35;97365.39;136657;1281;22475;-80
2023/11/03 02:59:45;;;;;;;6.80;3.70;;;;;;;11.52;88.69;97355.80;136669;1276;22437;-80
2023/11/03 03:02:46;;;;;;;7.70;3.60;;;;;;;11.47;88.94;97358.70;136586;1281;22468;-79
2023/11/03 03:05:49;;;;;;;6.10;3.80;;;;;;;11.44;89.08;97360.35;136657;1281;22415;-79
2023/11/03 03:08:50;;;;;;;6.40;3.90;;;;;;;11.41;89.10;97354.04;136555;1281;23272;-78
2023/11/03 03:11:50;;;;;;;6.10;3.50;;;;;;;11.39;89.27;97350.05;136647;1281;22395;-79
2023/11/03 03:14:51;;;;;;;6.40;3.60;;;;;;;11.34;89.51;97344.77;136688;1281;22268;-79
2023/11/03 03:17:55;;;;;;;9.50;4.30;;;;;;;11.31;89.84;97346.20;136689;1281;22525;-79
2023/11/03 03:20:55;;;;;;;6.50;4.10;;;;;;;11.29;90.21;97348.85;136700;1281;22620;-79
2023/11/03 03:23:56;;;;;;;6.10;3.70;;;;;;;11.30;90.18;97350.71;136687;1281;22249;-79
2023/11/03 03:26:56;;;;;;;6.50;3.70;;;;;;;11.30;90.43;97350.92;136697;1281;22530;-80
2023/11/03 03:29:57;;;;;;;4.60;3.60;;;;;;;11.30;90.53;97350.29;136669;1281;22179;-80
2023/11/03 03:32:58;;;;;;;4.80;3.60;;;;;;;11.31;90.47;97348.86;136696;1281;22362;-80
2023/11/03 03:35:58;;;;;;;10.30;4.30;;;;;;;11.32;90.71;97349.77;136691;1281;23277;-79
2023/11/03 03:38:59;;;;;;;6.70;3.80;;;;;;;11.30;91.03;97338.48;136575;1281;22448;-80
2023/11/03 03:41:59;;;;;;;9.50;4.20;;;;;;;11.29;91.22;97336.92;136690;1281;22411;-79
2023/11/03 03:45:00;;;;;;;7.40;4.10;;;;;;;11.27;91.34;97331.54;136671;1281;22428;-79
2023/11/03 03:48:00;;;;;;;10.30;4.40;;;;;;;11.27;91.45;97330.36;136714;1281;22545;-78
2023/11/03 03:51:01;;;;;;;3.90;3.50;;;;;;;11.25;91.67;97330.17;136692;1278;22387;-79
2023/11/03 03:54:01;;;;;;;6.70;4.20;;;;;;;11.24;91.91;97331.60;136667;1281;22473;-79
2023/11/03 03:57:02;;;;;;;6.70;4.10;;;;;;;11.22;91.89;97328.11;136663;1281;22262;-78
2023/11/03 04:00:04;;;;;;;5.70;4.40;;;;;;;11.21;91.95;97316.27;136703;1281;22385;-79
2023/11/03 04:03:05;;;;;;;6.00;4.30;;;;;;;11.21;92.16;97305.48;136669;1281;22611;-79
2023/11/03 04:06:09;;;;;;;8.40;4.20;;;;;;;11.21;92.16;97303.41;136689;1281;23221;-78
2023/11/03 04:09:10;;;;;;;7.20;4.60;;;;;;;11.20;92.27;97300.48;136682;1281;22369;-79
2023/11/03 04:12:11;;;;;;;7.20;4.20;;;;;;;11.21;92.26;97297.64;136680;1281;22466;-78
2023/11/03 04:15:11;;;;;;;7.80;4.20;;;;;;;11.24;92.34;97301.02;136655;1281;22450;-79
2023/11/03 04:18:12;;;;;;;4.90;3.90;;;;;;;11.26;92.29;97305.63;136674;1281;22481;-79
2023/11/03 04:21:13;;;;;;;4.30;3.80;;;;;;;11.28;92.31;97301.25;136636;1280;22416;-78
2023/11/03 04:24:13;;;;;;;11.40;5.00;;;;;;;11.30;92.60;97300.69;136489;1281;23309;-78
2023/11/03 04:27:14;;;;;;;5.90;3.80;;;;;;;11.30;92.49;97297.14;136638;1281;23169;-79
2023/11/03 04:30:15;;;;;;;;;;;;;;;11.29;92.83;97292.61;136664;1281;22439;-79
2023/11/03 04:33:15;;;;;;;6.50;3.90;;;;;;;11.27;92.69;97289.02;136679;1281;23256;-78
2023/11/03 04:36:16;;;;;;;5.00;4.00;;;;;;;11.26;93.09;97287.34;136654;1281;22404;-79
2023/11/03 04:39:17;;;;;;;7.60;4.60;;;;;;;11.23;93.00;97288.23;136636;1281;22493;-77
2023/11/03 04:42:20;;;;;;;9.60;4.70;;;;;;;11.22;93.11;97296.16;136647;1281;23189;-77
2023/11/03 04:45:21;;;;;;;7.60;4.50;;;;;;;11.24;93.31;97299.42;136640;1281;22437;-79
2023/11/03 04:48:22;;;;;;;8.80;4.60;;;;;;;11.25;93.39;97307.52;136642;1281;22465;-80
2023/11/03 04:51:22;;;;;;;7.50;4.30;;;;;;;11.26;93.27;97317.45;136652;1281;22610;-79
2023/11/03 04:54:23;;;;;;;8.90;5.20;;;;;;;11.27;93.43;97322.77;136628;1281;23237;-79
2023/11/03 04:57:23;;;;;;;10.80;5.80;;;;;;;11.28;93.69;97330.17;136655;1281;23181;-80
2023/11/03 05:00:24;;;;;;;7.10;5.70;;;;;;;11.29;93.65;97333.12;136652;1281;23584;-79
2023/11/03 05:03:24;;;;;;;7.80;5.40;;;;;;;11.30;93.79;97332.02;136661;1281;22395;-79
2023/11/03 05:06:25;;;;;;;7.30;5.30;;;;;;;11.30;93.86;97333.61;136624;1281;22398;-78
2023/11/03 05:09:26;;;;;;;9.50;4.60;;;;;;;11.28;94.13;97340.33;136656;1281;22442;-79
2023/11/03 05:12:26;;;;;;;8.80;4.60;;;;;;;11.26;94.20;97344.00;136648;1275;22313;-79
2023/11/03 05:15:27;;;;;;;6.60;4.10;;;;;;;11.24;94.32;97347.70;136655;1281;22479;-79
2023/11/03 05:18:28;;;;;;;10.80;5.70;;;;;;;11.23;94.44;97352.33;136656;1281;22439;-79
2023/11/03 05:21:28;;;;;;;10.00;5.00;;;;;;;11.24;94.95;97354.64;136658;1281;23066;-79
2023/11/03 05:24:29;;;;;;;8.10;5.00;;;;;;;11.23;94.70;97356.85;136632;1281;22464;-79
2023/11/03 05:27:29;;;;;;;7.60;5.60;;;;;;;11.24;94.95;97352.35;136640;1275;23235;-80
2023/11/03 05:30:30;;;;;;;9.20;5.20;;;;;;;11.26;95.02;97350.47;136636;1281;22478;-80
2023/11/03 05:33:31;;;;;;;4.30;3.30;;;;;;;11.26;95.22;97358.55;136629;1281;22516;-80
2023/11/03 05:36:34;;;;;;;3.60;3.00;;;;;;;11.19;94.97;97359.80;136657;1281;22802;-79
2023/11/03 05:39:35;;;;;;;3.80;2.70;;;;;;;11.07;94.67;97354.44;136680;1281;22422;-78
2023/11/03 05:42:35;;;;;;;3.80;3.10;;;;;;;10.95;94.57;97352.55;136625;1281;22545;-79
2023/11/03 05:45:36;;;;;;;4.00;2.80;;;;;;;10.87;94.62;97353.83;136635;1281;22248;-79
2023/11/03 05:48:37;;;;;;;4.70;2.70;;;;;;;10.81;94.69;97351.96;136651;1281;22845;-79
2023/11/03 05:51:38;;;;;;;2.60;2.40;;;;;;;10.73;94.71;97338.30;136665;1281;22477;-79
2023/11/03 05:54:39;;;;;;;3.90;3.00;;;;;;;10.70;94.64;97328.59;136653;1281;22501;-79
2023/11/03 05:57:43;;;;;;;4.80;2.90;;;;;;;10.67;94.88;97317.45;136637;1281;23028;-79
2023/11/03 06:00:43;;;;;;;2.90;2.60;;;;;;;10.66;94.80;97314.97;136630;1280;22497;-78
2023/11/03 06:03:47;;;;;;;6.80;2.60;;;;;;;10.66;94.93;97334.83;136656;1281;22452;-79
2023/11/03 06:06:48;;;;;;;2.90;2.40;;;;;;;10.69;94.79;97351.95;136653;1281;22184;-79
2023/11/03 06:09:49;;;;;;;4.60;3.10;;;;;;;10.71;94.89;97358.15;136639;1281;23152;-79
2023/11/03 06:12:50;;;;;;;2.90;2.60;;;;;;;10.73;94.79;97353.73;136638;1281;22404;-79
2023/11/03 06:15:50;;;;;;;;;;;;;;;10.73;94.64;97341.70;136633;1281;23182;-78
2023/11/03 06:18:50;;;;;;;3.20;2.90;;;;;;;10.72;94.56;97347.17;136629;1281;22536;-78
2023/11/03 06:21:51;;;;;;;3.40;2.90;;;;;;;10.72;94.69;97362.36;136634;1278;22441;-78
2023/11/03 06:24:52;;;;;;;5.00;2.90;;;;;;;10.73;94.45;97364.23;136670;1278;22414;-78
2023/11/03 06:27:52;;;;;;;2.90;2.60;;;;;;;10.76;94.76;97361.69;136638;1281;22460;-78
2023/11/03 06:30:53;;;;;;;;;;;;;;;10.77;94.65;97357.04;136656;1281;22420;-78
2023/11/03 06:33:53;;;;;;;5.30;2.80;;;;;;;10.79;94.66;97343.23;136664;1281;22266;-78
2023/11/03 06:36:54;;;;;;;3.60;3.10;;;;;;;10.81;94.83;97342.03;136542;1281;22468;-77
2023/11/03 06:39:54;;;;;;;7.90;3.30;;;;;;;10.81;94.75;97347.30;136665;1281;23340;-79
2023/11/03 06:42:55;;;;;;;3.60;3.10;;;;;;;10.80;94.74;97346.80;136626;1281;23188;-78
2023/11/03 06:45:55;;;;;;;4.30;2.90;;;;;;;10.78;94.69;97350.05;136670;1281;22399;-79
2023/11/03 06:48:56;;;;;;;3.80;3.30;;;;;;;10.75;94.54;97356.35;136660;1280;23771;-79
2023/11/03 06:51:57;;;;;;;4.90;3.00;;;;;;;10.75;94.69;97359.08;136659;1281;22397;-79
2023/11/03 06:54:57;;;;;;;3.60;3.30;;;;;;;10.78;94.95;97360.30;136689;1281;22550;-78
2023/11/03 06:57:58;;;;;;;3.60;3.30;;;;;;;10.80;94.88;97363.31;136677;1281;22453;-81
2023/11/03 07:00:59;;;;;;;5.20;4.10;;;;;;;10.81;95.20;97371.70;136657;1281;22366;-77
2023/11/03 07:04:00;;;;;;;5.30;4.10;;;;;;;10.82;95.24;97370.45;136641;1281;22481;-76
2023/11/03 07:07:04;;;;;;;4.20;3.90;;;;;;;10.84;95.12;97362.95;136651;1281;22437;-77
2023/11/03 07:10:06;;;;;;;4.90;4.40;;;;;;;10.85;95.17;97360.65;136661;1281;23198;-74
2023/11/03 07:13:11;;;;;;;4.90;4.40;;;;;;;10.88;95.19;97368.71;136591;1281;22916;-81
2023/11/03 07:16:13;;;;;;;5.10;4.50;;;;;;;10.91;95.58;97381.02;136638;1281;22420;-80
2023/11/03 07:19:13;;;;;;;6.00;5.40;;;;;;;10.94;95.45;97382.25;136651;1281;22513;-80
2023/11/03 07:22:15;;;;;;;7.20;5.50;;;;;;;10.95;95.31;97390.39;136646;1281;22862;-78
2023/11/03 07:25:19;;;;;;;5.80;5.10;;;;;;;10.95;95.41;97401.48;136598;1281;23016;-81
2023/11/03 07:28:19;;;;;;;4.70;4.30;;;;;;;10.97;95.33;97403.65;136520;1281;22244;-81
2023/11/03 07:31:20;;;;;;;4.70;4.30;;;;;;;10.97;95.35;97405.39;136659;1281;22446;-82
2023/11/03 07:34:24;;;;;;;4.50;4.10;;;;;;;10.95;95.47;97407.50;136632;1281;22402;-79
2023/11/03 07:37:26;;;;;;;5.90;4.00;;;;;;;10.94;95.39;97413.52;136613;1281;22531;-79
2023/11/03 07:40:27;;;;;;;4.20;3.70;;;;;;;10.94;95.58;97421.99;136647;1281;23135;-79
2023/11/03 07:43:27;;;;;;;6.50;5.30;;;;;;;10.96;95.80;97425.97;136511;1281;22487;-79
2023/11/03 07:46:31;;;;;;;8.40;6.30;;;;;;;10.96;95.86;97429.27;136659;1281;22403;-78
2023/11/03 07:49:32;;;;;;;7.10;6.40;;;;;;;10.95;95.69;97426.36;136676;1281;22500;-79
2023/11/03 07:52:35;;;;;;;10.70;6.60;;;;;;;10.94;95.77;97421.26;136642;1281;22448;-79
2023/11/03 07:55:36;;;;;;;9.40;5.90;;;;;;;10.94;95.71;97423.84;136654;1281;23331;-79
2023/11/03 07:58:37;;;;;;;;;;;;;;;10.95;95.94;97417.34;136678;1281;22427;-78
2023/11/03 08:01:37;;;;;;;6.90;5.80;;;;;;;10.96;95.90;97406.17;136644;1281;22476;-80
2023/11/03 08:04:43;;;;;;;6.90;5.80;;;;;;;10.96;96.13;97402.26;136633;1281;22404;-82
2023/11/03 08:07:44;;;;;;;9.00;6.40;;;;;;;10.97;96.10;97402.42;136517;1281;23269;-82
2023/11/03 08:10:49;;;;;;;8.90;7.60;;;;;;;10.99;96.21;97403.45;136633;1281;23213;-81
2023/11/03 08:13:53;;;;;;;9.80;8.80;;;;;;;11.01;96.27;97413.17;136549;1281;22270;-81
2023/11/03 08:16:53;;;;;;;16.00;9.30;;;;;;;11.02;96.22;97415.15;136657;1281;22441;-82
2023/11/03 08:19:54;;;;;;;10.70;9.40;;;;;;;11.03;96.19;97411.45;136632;1281;22256;-83
2023/11/03 08:22:54;;;;;;;10.30;7.90;;;;;;;11.02;95.98;97411.81;136608;1281;22473;-82
2023/11/03 08:25:56;;;;;;;8.10;7.30;;;;;;;11.01;95.98;97411.23;136646;1281;22371;-83
2023/11/03 08:29:03;;;;;;;12.40;7.00;;;;;;;11.00;96.05;97408.33;136668;1281;23232;-82
2023/11/03 08:32:05;;;;;;;8.40;7.10;;;;;;;11.00;96.06;97396.58;136645;1281;22410;-82
2023/11/03 08:35:06;;;;;;;9.30;7.10;;;;;;;10.96;96.30;97395.45;136667;1281;22469;-83
2023/11/03 08:38:07;;;;;;;9.70;7.10;;;;;;;10.93;96.48;97391.09;136682;1281;22195;-82
2023/11/03 08:41:09;;;;;;;8.20;6.70;;;;;;;10.89;96.32;97392.19;136658;1281;22359;-82
2023/11/03 08:44:14;;;;;;;7.60;6.60;;;;;;;10.85;96.40;97388.27;136661;1281;22448;-81
2023/11/03 08:47:16;;;;;;;7.10;5.60;;;;;;;10.80;96.31;97387.55;136641;1281;22405;-81
2023/11/03 08:50:18;;;;;;;7.10;5.70;;;;;;;10.74;96.30;97387.02;136660;1281;22465;-82
2023/11/03 08:53:19;;;;;;;8.40;6.20;;;;;;;10.72;96.61;97386.12;136496;1281;22255;-81
2023/11/03 08:56:20;;;;;;;6.70;5.40;;;;;;;10.71;96.73;97388.22;136651;1280;22880;-81
2023/11/03 08:59:20;;;;;;;8.40;6.30;;;;;;;10.71;96.85;97394.74;136652;1281;22425;-83
2023/11/03 09:02:21;;;;;;;8.40;6.50;;;;;;;10.72;96.99;97386.92;136666;1279;22379;-82
2023/11/03 09:05:23;;;;;;;;;;;;;;;10.74;96.70;97385.67;136665;1281;22919;-81
2023/11/03 09:08:23;;;;;;;6.40;5.60;;;;;;;10.70;96.81;97380.13;136668;1273;22792;-80
2023/11/03 09:11:24;;;;;;;8.30;6.60;;;;;;;10.67;96.85;97371.82;136654;1281;23107;-83
2023/11/03 09:14:26;;;;;;;8.90;7.30;;;;;;;10.67;96.89;97370.23;136646;1281;22465;-82
2023/11/03 09:17:27;;;;;;;8.60;7.50;;;;;;;10.68;97.13;97365.20;136652;1280;22416;-82
2023/11/03 09:20:28;;;;;;;8.00;7.00;;;;;;;10.66;96.99;97369.80;136629;1281;22467;-82
2023/11/03 09:23:29;;;;;;;8.60;6.30;;;;;;;10.56;96.94;97367.33;136667;1280;22528;-82
2023/11/03 09:26:30;;;;;;;9.60;7.00;;;;;;;10.53;97.24;97366.86;136671;1274;22403;-82
2023/11/03 09:29:30;;;;;;;7.80;6.80;;;;;;;10.55;97.40;97363.27;136667;1281;22582;-81
2023/11/03 09:32:31;;;;;;;9.40;6.50;;;;;;;10.54;97.58;97366.71;136636;1278;22399;-83
2023/11/03 09:35:33;;;;;;;9.10;6.50;;;;;;;10.52;97.57;97366.83;136610;1281;22375;-82
2023/11/03 09:38:34;;;;;;;8.80;6.00;;;;;;;10.51;97.41;97356.83;136658;1270;22600;-82
2023/11/03 09:41:43;;;;;;;7.20;5.90;;;;;;;10.49;97.62;97356.54;136646;1281;22390;-83
2023/11/03 09:44:47;;;;;;;8.00;5.80;;;;;;;10.52;97.82;97354.67;136647;1281;23320;-81
2023/11/03 09:47:49;;;;;;;8.60;6.50;;;;;;;10.51;97.81;97347.56;136663;1281;23190;-82
2023/11/03 09:50:50;;;;;;;6.50;5.90;;;;;;;10.52;97.75;97341.43;136653;1281;22461;-81
2023/11/03 09:53:52;;;;;;;9.00;6.30;;;;;;;10.55;98.06;97336.39;136630;1281;23155;-82
2023/11/03 09:56:59;;;;;;;9.50;7.00;;;;;;;10.58;97.98;97329.94;136505;1279;22397;-82
2023/11/03 10:00:05;;;;;;;7.80;5.90;;;;;;;10.61;98.12;97321.96;136628;1281;22555;-82
2023/11/03 10:03:13;;;;;;;9.10;6.60;;;;;;;10.62;98.01;97312.94;136545;1281;23130;-80
2023/11/03 10:06:16;;;;;;;;;;;;;;;10.62;97.99;97307.10;136631;1278;22408;-82
2023/11/03 10:09:16;;;;;;;8.20;6.20;;;;;;;10.61;98.04;97305.54;136637;1281;22312;-78
2023/11/03 10:12:20;;;;;;;8.90;7.10;;;;;;;10.63;98.41;97302.09;136657;1281;22477;-77
2023/11/03 10:15:21;;;;;;;9.20;7.20;;;;;;;10.66;98.41;97293.07;136660;1281;23146;-76
2023/11/03 10:18:22;;;;;;;7.50;6.30;;;;;;;10.65;98.25;97280.39;136655;1281;22251;-74
2023/11/03 10:21:23;;;;;;;8.90;6.70;;;;;;;10.65;98.07;97279.70;136609;1281;22465;-75
2023/11/03 10:24:24;;;;;;;13.20;7.70;;;;;;;10.65;98.06;97276.35;136637;1281;22421;-75
2023/11/03 10:27:26;;;;;;;8.80;7.00;;;;;;;10.66;98.20;97275.67;136631;1280;22378;-75
2023/11/03 10:30:29;;;;;;;9.40;7.40;;;;;;;10.67;98.18;97271.70;136535;1281;186224;-75
2023/11/03 10:33:30;;;;;;;10.30;7.00;;;;;;;10.68;98.25;97258.64;136642;1278;22472;-75
2023/11/03 10:36:32;;;;;;;10.20;6.50;;;;;;;10.69;98.26;97254.80;136649;1281;22436;-75
2023/11/03 10:39:33;;;;;;;9.60;6.70;;;;;;;10.71;98.22;97243.63;136651;1281;22464;-75
2023/11/03 10:42:38;;;;;;;10.00;6.70;;;;;;;10.70;98.00;97242.77;136659;1281;22376;-75
2023/11/03 10:45:42;;;;;;;10.40;7.00;;;;;;;10.68;98.34;97238.34;136656;1281;22464;-75
2023/11/03 10:48:45;;;;;;;10.30;6.90;;;;;;;10.68;98.37;97242.68;136649;1281;23234;-75
2023/11/03 10:52:03;;;;;;;10.30;7.20;;;;;;;10.65;98.36;97237.06;136558;1281;23192;-75
2023/11/03 10:55:13;;;;;;;9.30;6.60;;;;;;;10.63;98.50;97235.11;136651;1281;22389;-75
2023/11/03 10:58:14;;;;;;;15.70;7.80;;;;;;;10.61;98.45;97232.09;136633;1281;22435;-75
2023/11/03 11:01:23;;;;;;;12.20;7.90;;;;;;;10.59;98.47;97225.58;136656;1281;22371;-75
2023/11/03 11:04:42;;;;;;;10.50;8.40;;;;;;;10.57;98.55;97225.77;136559;1281;22430;-76
2023/11/03 11:07:50;;;;;;;7.90;7.00;;;;;;;10.59;98.57;97223.41;136689;1281;22495;-74
2023/11/03 11:10:50;;;;;;;10.70;7.50;;;;;;;10.58;98.48;97224.98;136673;1281;22441;-74
2023/11/03 11:13:51;;;;;;;14.00;9.10;;;;;;;10.53;98.56;97222.95;136661;1281;22377;-74
2023/11/03 11:16:55;;;;;;;12.10;9.10;;;;;;;10.52;98.81;97217.52;136705;1281;23140;-74
2023/11/03 11:19:57;;;;;;;12.10;9.10;;;;;;;10.49;98.81;97215.05;136675;1281;22413;-74
2023/11/03 11:23:00;;;;;;;13.00;9.10;;;;;;;10.46;98.97;97212.64;136673;1281;22451;-75
2023/11/03 11:26:12;;;;;;;8.00;6.90;;;;;;;10.45;98.94;97203.65;136657;1281;23472;-74
2023/11/03 11:29:26;;;;;;;8.10;6.50;;;;;;;10.43;98.90;97193.01;136630;1273;22538;-74
2023/11/03 11:32:27;;;;;;;12.90;6.80;;;;;;;10.38;98.90;97191.23;136639;1281;22431;-74
2023/11/03 11:35:36;;;;;;;;;;;;;;;10.35;98.69;97185.06;136676;1281;22439;-75
2023/11/03 11:38:37;;;;;;;8.70;5.80;;;;;;;10.32;98.82;97179.13;136647;1281;22384;-75
2023/11/03 11:41:43;;;;;;;6.60;5.60;;;;;;;10.31;98.95;97175.94;136647;1281;22378;-77
2023/11/03 11:44:44;;;;;;;7.50;5.30;;;;;;;10.28;98.81;97174.48;136684;1273;22424;-74
2023/11/03 11:47:47;;;;;;;7.10;5.40;;;;;;;10.25;99.06;97173.21;136545;1281;22394;-76
2023/11/03 11:50:47;;;;;;;9.20;5.20;;;;;;;10.25;99.06;97166.23;136638;1273;22446;-76
2023/11/03 11:53:57;;;;;;;7.80;5.00;;;;;;;10.26;99.17;97158.27;136649;1281;22405;-75
2023/11/03 11:57:00;;;;;;;6.90;4.60;;;;;;;10.28;99.28;97152.40;136663;1281;23238;-75
2023/11/03 12:00:01;;;;;;;6.30;4.30;;;;;;;10.28;99.01;97142.71;136672;1281;22430;-76
2023/11/03 12:03:02;;;;;;;7.80;4.40;;;;;;;10.30;99.09;97141.98;136662;1275;22258;-76
2023/11/03 12:06:02;;;;;;;5.70;4.80;;;;;;;10.28;98.94;97141.36;136670;1281;22366;-77
2023/11/03 12:09:03;;;;;;;;;;;;;;;10.27;98.89;97141.67;136657;1278;22440;-77
2023/11/03 12:12:04;;;;;;;7.40;4.30;;;;;;;10.29;98.89;97147.11;136637;1281;23384;-76
2023/11/03 12:15:05;;;;;;;;;;;;;;;10.31;98.91;97152.51;136664;1281;23194;-80
2023/11/03 12:18:05;;;;;;;6.50;4.90;;;;;;;10.34;99.00;97152.07;136650;1281;22260;-77
2023/11/03 12:21:07;;;;;;;;;;;;;;;10.35;99.07;97152.09;136645;1281;22430;-77
2023/11/03 12:24:12;;;;;;;10.70;5.20;;;;;;;10.34;99.04;97155.32;136695;1281;22438;-77
2023/11/03 12:27:13;;;;;;;6.90;5.10;;;;;;;10.32;98.88;97160.69;136653;1281;23209;-75
2023/11/03 12:30:14;;;;;;;8.40;5.50;;;;;;;10.32;98.71;97159.78;136686;1278;22399;-74
2023/11/03 12:33:15;;;;;;;7.70;5.50;;;;;;;10.34;98.91;97146.35;136650;1281;22533;-76
2023/11/03 12:36:15;;;;;;;7.10;5.90;;;;;;;10.33;98.75;97137.33;136649;1275;22357;-76
2023/11/03 12:39:17;;;;;;;;;;;;;;;10.32;98.91;97127.83;136688;1281;22415;-75
2023/11/03 12:42:22;;;;;;;7.70;5.50;;;;;;;10.33;99.02;97121.85;136684;1281;22473;-75
2023/11/03 12:45:26;;;;;;;7.30;5.90;;;;;;;10.31;99.08;97107.14;136555;1281;22383;-75
2023/11/03 12:48:29;;;;;;;14.70;6.70;;;;;;;10.30;99.08;97099.01;136682;1274;22363;-75
2023/11/03 12:51:32;;;;;;;10.60;6.00;;;;;;;10.28;98.90;97098.02;136677;1281;22443;-74
2023/11/03 12:54:33;;;;;;;6.80;5.60;;;;;;;10.26;98.96;97100.67;136654;1281;22580;-81
2023/11/03 12:57:41;;;;;;;9.00;6.00;;;;;;;10.25;99.01;97097.35;136667;1281;22416;-76
2023/11/03 13:00:44;;;;;;;9.40;5.90;;;;;;;10.24;98.98;97103.32;136704;1281;22501;-75
2023/11/03 13:03:48;;;;;;;7.20;5.90;;;;;;;10.21;98.87;97110.48;136693;1281;22387;-75
2023/11/03 13:06:51;;;;;;;9.70;6.30;;;;;;;10.19;99.03;97114.11;136702;1281;22444;-76
2023/11/03 13:09:52;;;;;;;12.30;7.70;;;;;;;10.16;98.89;97114.14;136631;1281;22218;-78
2023/11/03 13:12:53;;;;;;;10.10;6.90;;;;;;;10.14;98.90;97106.84;136705;1281;23202;-76
2023/11/03 13:15:54;;;;;;;7.70;6.10;;;;;;;10.13;99.17;97098.14;136727;1280;22529;-76
2023/11/03 13:18:55;;;;;;;;;;;;;;;10.11;99.11;97092.76;136718;1280;22455;-75
2023/11/03 13:21:55;;;;;;;8.10;6.60;;;;;;;10.06;99.19;97091.77;136718;1281;23094;-76
2023/11/03 13:24:56;;;;;;;8.40;7.00;;;;;;;10.06;99.32;97091.40;136707;1280;23086;-76
2023/11/03 13:27:57;;;;;;;10.80;7.10;;;;;;;10.06;99.55;97082.19;136699;1281;23100;-76
2023/11/03 13:31:03;;;;;;;10.30;7.50;;;;;;;10.06;99.55;97083.81;136700;1281;22453;-76
2023/11/03 13:34:03;;;;;;;11.20;7.30;;;;;;;10.03;99.40;97117.45;136574;1281;22440;-76
2023/11/03 13:37:04;;;;;;;8.90;7.70;;;;;;;9.99;99.44;97130.10;136713;1280;22388;-76
2023/11/03 13:40:06;;;;;;;9.10;8.10;;;;;;;9.95;99.42;97115.39;136568;1280;22439;-76
2023/11/03 13:43:09;;;;;;;10.20;8.00;;;;;;;9.92;99.43;97106.36;136571;1280;22940;-76
2023/11/03 13:46:14;;;;;;;12.00;8.50;;;;;;;9.88;99.52;97113.94;136705;1280;22364;-76
2023/11/03 13:49:15;;;;;;;9.10;7.50;;;;;;;9.85;99.57;97101.13;136721;1281;22440;-76
2023/11/03 13:52:16;;;;;;;16.90;12.10;;;;;;;9.83;99.81;97115.91;136732;1280;22413;-77
2023/11/03 13:55:20;;;;;;;12.60;9.60;;;;;;;9.81;99.87;97143.09;136729;1281;22432;-77
2023/11/03 13:58:20;;;;;;;13.80;9.20;;;;;;;9.79;99.95;97132.45;136698;1280;22917;-75
2023/11/03 14:01:21;;;;;;;11.00;9.30;;;;;;;9.75;100.00;97118.56;136713;1271;22268;-76
2023/11/03 14:04:22;;;;;;;10.70;8.90;;;;;;;9.70;100.00;97108.77;136718;1281;22447;-77
2023/11/03 14:07:22;;;;;;;;;;;;;;;9.66;100.00;97099.48;136704;1280;22422;-76
2023/11/03 14:10:23;;;;;;;16.30;10.80;;;;;;;9.62;100.00;97096.54;136713;1281;23450;-76